Time,TemperatureF,DewpointF,PressureIn,WindDirection,WindDirectionDegrees,WindSpeedMPH,WindSpeedGustMPH,Humidity,HourlyPrecipIn,Conditions,Clouds,dailyrainin,SoftwareType,DateUTC
2013-01-29 00:00:00,48.3,43.4,30.02,SSE,165,10.0,22.0,83,0.00,,SKC,0.10,VWS V14.01,2013-01-29 05:00:00,
2013-01-29 00:01:00,48.3,43.4,30.02,SW,217,12.0,13.0,83,0.00,,SKC,0.00,VWS V14.01,2013-01-29 05:01:00,
2013-01-29 00:07:00,48.3,43.4,30.02,South,189,17.0,29.0,83,0.00,,SKC,0.00,VWS V14.01,2013-01-29 05:07:00,
2013-01-29 00:10:00,48.3,43.4,30.02,West,281,14.0,29.0,83,0.00,,SKC,0.00,VWS V14.01,2013-01-29 05:10:00,
2013-01-29 00:13:00,48.5,43.6,30.02,South,181,10.0,29.0,83,0.00,,SKC,0.00,VWS V14.01,2013-01-29 05:13:00,
2013-01-29 00:15:00,48.6,43.7,30.00,SSW,196,9.0,34.0,83,0.00,,SKC,0.00,VWS V14.01,2013-01-29 05:15:00,
2013-01-29 00:19:00,48.8,43.9,30.00,South,176,12.0,24.0,83,0.00,,SKC,0.00,VWS V14.01,2013-01-29 05:19:00,
2013-01-29 00:25:00,48.5,43.9,30.00,SW,236,5.0,33.0,84,0.00,,SKC,0.00,VWS V14.01,2013-01-29 05:25:00,
2013-01-29 00:30:00,48.3,43.7,30.00,South,188,12.0,33.0,84,0.00,,SKC,0.00,VWS V14.01,2013-01-29 05:30:00,
2013-01-29 00:37:00,48.8,44.2,30.00,South,174,9.0,29.0,84,0.00,,SKC,0.00,VWS V14.01,2013-01-29 05:37:00,
2013-01-29 00:43:00,48.8,44.2,30.00,South,189,16.0,29.0,84,0.00,,SKC,0.00,VWS V14.01,2013-01-29 05:43:00,
2013-01-29 00:45:00,48.8,44.2,30.00,SSW,195,11.0,29.0,84,0.00,,SKC,0.00,VWS V14.01,2013-01-29 05:45:00,
2013-01-29 00:49:00,48.8,43.9,30.00,West,261,10.0,27.0,83,0.00,,SKC,0.00,VWS V14.01,2013-01-29 05:49:00,
2013-01-29 00:55:00,48.6,44.0,30.00,SW,222,10.0,27.0,84,0.00,,SKC,0.00,VWS V14.01,2013-01-29 05:55:00,
2013-01-29 01:00:00,48.5,44.5,30.00,SSE,150,12.0,27.0,86,0.00,,SKC,0.00,VWS V14.01,2013-01-29 06:00:00,
2013-01-29 01:07:00,48.6,44.9,30.00,SE,143,9.0,27.0,87,0.00,,SKC,0.00,VWS V14.01,2013-01-29 06:07:00,
2013-01-29 01:13:00,49.2,45.2,30.00,SW,216,21.0,27.0,86,0.00,,SKC,0.00,VWS V14.01,2013-01-29 06:13:00,
2013-01-29 01:15:00,49.4,45.4,30.00,SSW,193,11.0,27.0,86,0.00,,SKC,0.00,VWS V14.01,2013-01-29 06:15:00,
2013-01-29 01:19:00,49.2,45.2,30.00,WSW,248,1.0,19.0,86,0.00,,SKC,0.00,VWS V14.01,2013-01-29 06:19:00,
2013-01-29 01:25:00,48.8,44.8,30.00,SW,219,7.0,22.0,86,0.00,,SKC,0.00,VWS V14.01,2013-01-29 06:25:00,
2013-01-29 01:30:00,48.6,44.9,30.00,SW,216,5.0,25.0,87,0.00,,SKC,0.00,VWS V14.01,2013-01-29 06:30:00,
2013-01-29 01:37:00,48.2,44.5,30.00,SW,233,5.0,22.0,87,0.00,,SKC,0.00,VWS V14.01,2013-01-29 06:37:00,
2013-01-29 01:43:00,48.2,44.5,30.00,WSW,240,11.0,22.0,87,0.00,,SKC,0.00,VWS V14.01,2013-01-29 06:43:00,
2013-01-29 01:45:00,48.2,44.8,30.00,SSW,199,11.0,24.0,88,0.00,,SKC,0.00,VWS V14.01,2013-01-29 06:45:00,
2013-01-29 01:49:00,48.2,44.5,30.00,SW,236,10.0,18.0,87,0.00,,SKC,0.00,VWS V14.01,2013-01-29 06:49:00,
2013-01-29 01:55:00,48.3,44.9,30.00,SSW,198,17.0,27.0,88,0.00,,SKC,0.00,VWS V14.01,2013-01-29 06:55:00,
2013-01-29 02:00:00,48.3,44.9,30.00,SSW,195,11.0,32.0,88,0.00,,SKC,0.00,VWS V14.01,2013-01-29 07:00:00,
2013-01-29 02:07:00,48.3,44.9,30.00,SSW,204,11.0,25.0,88,0.00,,SKC,0.00,VWS V14.01,2013-01-29 07:07:00,
2013-01-29 02:13:00,48.3,44.9,30.00,SW,214,6.0,25.0,88,0.00,,SKC,0.00,VWS V14.01,2013-01-29 07:13:00,
2013-01-29 02:15:00,48.3,44.9,30.00,SW,221,4.0,32.0,88,0.00,,SKC,0.00,VWS V14.01,2013-01-29 07:15:00,
2013-01-29 02:19:00,48.2,44.8,30.00,South,191,14.0,22.0,88,0.00,,SKC,0.00,VWS V14.01,2013-01-29 07:19:00,
2013-01-29 02:25:00,48.0,44.6,30.00,SW,233,9.0,23.0,88,0.00,,SKC,0.00,VWS V14.01,2013-01-29 07:25:00,
2013-01-29 02:30:00,48.0,44.9,30.00,SW,229,12.0,23.0,89,0.00,,SKC,0.00,VWS V14.01,2013-01-29 07:30:00,
2013-01-29 02:37:00,48.2,45.7,30.00,SSW,193,8.0,26.0,91,0.00,,SKC,0.00,VWS V14.01,2013-01-29 07:37:00,
2013-01-29 02:43:00,48.5,46.0,30.00,South,182,9.0,26.0,91,0.00,,SKC,0.00,VWS V14.01,2013-01-29 07:43:00,
2013-01-29 02:45:00,48.5,46.0,30.00,SW,231,3.0,26.0,91,0.00,,SKC,0.00,VWS V14.01,2013-01-29 07:45:00,
2013-01-29 02:49:00,48.6,46.4,30.00,SSW,202,9.0,18.0,92,0.00,,SKC,0.00,VWS V14.01,2013-01-29 07:49:00,
2013-01-29 02:55:00,48.9,46.7,30.00,SW,217,11.0,24.0,92,0.00,,SKC,0.00,VWS V14.01,2013-01-29 07:55:00,
2013-01-29 03:00:00,49.4,47.2,29.99,SW,216,3.0,24.0,92,0.00,,SKC,0.00,VWS V14.01,2013-01-29 08:00:00,
2013-01-29 03:01:00,49.4,47.2,29.99,SSW,210,5.0,11.0,92,0.00,,SKC,0.00,VWS V14.01,2013-01-29 08:01:00,
2013-01-29 03:07:00,49.4,47.2,29.99,SW,214,19.0,19.0,92,0.00,,SKC,0.00,VWS V14.01,2013-01-29 08:07:00,
2013-01-29 03:13:00,49.1,46.6,29.99,SSW,201,5.0,22.0,91,0.00,,SKC,0.00,VWS V14.01,2013-01-29 08:13:00,
2013-01-29 03:15:00,48.9,46.4,29.98,SSW,198,15.0,27.0,91,0.00,,SKC,0.00,VWS V14.01,2013-01-29 08:15:00,
2013-01-29 03:19:00,48.9,46.7,29.98,SSW,193,12.0,27.0,92,0.00,,SKC,0.00,VWS V14.01,2013-01-29 08:19:00,
2013-01-29 03:26:00,48.9,46.7,29.98,SSW,207,22.0,27.0,92,0.00,,SKC,0.00,VWS V14.01,2013-01-29 08:26:00,
2013-01-29 03:30:00,48.9,46.7,29.99,SSW,195,16.0,27.0,92,0.00,,SKC,0.00,VWS V14.01,2013-01-29 08:30:00,
2013-01-29 03:32:00,48.9,46.7,29.99,South,190,6.0,21.0,92,0.00,,SKC,0.00,VWS V14.01,2013-01-29 08:32:00,
2013-01-29 03:38:00,49.2,47.0,29.99,West,259,5.0,21.0,92,0.00,,SKC,0.00,VWS V14.01,2013-01-29 08:38:00,
2013-01-29 03:44:00,49.1,46.6,29.99,SSW,198,5.0,26.0,91,0.00,,SKC,0.00,VWS V14.01,2013-01-29 08:44:00,
2013-01-29 03:45:00,48.9,46.4,29.98,SW,224,9.0,26.0,91,0.00,,SKC,0.00,VWS V14.01,2013-01-29 08:45:00,
2013-01-29 03:50:00,48.8,46.3,29.98,SSW,212,13.0,28.0,91,0.00,,SKC,0.00,VWS V14.01,2013-01-29 08:50:00,
2013-01-29 03:56:00,48.6,46.1,29.98,SSW,203,12.0,28.0,91,0.00,,SKC,0.00,VWS V14.01,2013-01-29 08:56:00,
2013-01-29 04:00:00,48.6,46.4,29.98,SSW,202,22.0,29.0,92,0.00,,SKC,0.00,VWS V14.01,2013-01-29 09:00:00,
2013-01-29 04:02:00,48.6,46.4,29.98,SSW,210,18.0,22.0,92,0.00,,SKC,0.00,VWS V14.01,2013-01-29 09:02:00,
2013-01-29 04:08:00,48.8,46.9,29.98,SW,221,7.0,28.0,93,0.00,,SKC,0.00,VWS V14.01,2013-01-29 09:08:00,
2013-01-29 04:14:00,48.6,46.4,29.98,SW,225,9.0,29.0,92,0.00,,SKC,0.00,VWS V14.01,2013-01-29 09:14:00,
2013-01-29 04:15:00,48.6,46.4,29.98,WSW,240,6.0,29.0,92,0.00,,SKC,0.00,VWS V14.01,2013-01-29 09:15:00,
2013-01-29 04:20:00,48.5,46.3,29.98,SSE,161,11.0,29.0,92,0.00,,SKC,0.00,VWS V14.01,2013-01-29 09:20:00,
2013-01-29 04:26:00,48.5,46.3,29.98,SW,216,4.0,29.0,92,0.00,,SKC,0.00,VWS V14.01,2013-01-29 09:26:00,
2013-01-29 04:30:00,48.5,46.6,29.98,South,184,7.0,29.0,93,0.00,,SKC,0.00,VWS V14.01,2013-01-29 09:30:00,
2013-01-29 04:32:00,48.5,46.6,29.98,SSW,204,14.0,18.0,93,0.00,,SKC,0.00,VWS V14.01,2013-01-29 09:32:00,
2013-01-29 04:38:00,48.6,46.7,29.98,SSW,203,1.0,20.0,93,0.00,,SKC,0.00,VWS V14.01,2013-01-29 09:38:00,
2013-01-29 04:44:00,48.9,47.2,29.98,SW,236,6.0,20.0,94,0.00,,SKC,0.00,VWS V14.01,2013-01-29 09:44:00,
2013-01-29 04:45:00,49.1,47.2,29.98,SSW,196,13.0,20.0,93,0.00,,SKC,0.00,VWS V14.01,2013-01-29 09:45:00,
2013-01-29 04:50:00,49.1,47.2,29.98,South,183,11.0,21.0,93,0.00,,SKC,0.00,VWS V14.01,2013-01-29 09:50:00,
2013-01-29 04:56:00,48.9,46.7,29.98,South,191,13.0,24.0,92,0.00,,SKC,0.00,VWS V14.01,2013-01-29 09:56:00,
2013-01-29 05:00:00,48.6,46.4,29.99,SW,230,5.0,24.0,92,0.00,,SKC,0.00,VWS V14.01,2013-01-29 10:00:00,
2013-01-29 05:02:00,48.6,46.1,29.99,SSW,203,16.0,24.0,91,0.00,,SKC,0.00,VWS V14.01,2013-01-29 10:02:00,
2013-01-29 05:08:00,48.9,46.1,29.99,SSW,193,21.0,28.0,90,0.00,,SKC,0.00,VWS V14.01,2013-01-29 10:08:00,
2013-01-29 05:14:00,49.1,46.3,29.99,SSW,194,9.0,28.0,90,0.00,,SKC,0.00,VWS V14.01,2013-01-29 10:14:00,
2013-01-29 05:15:00,49.2,46.4,30.00,SSW,207,15.0,29.0,90,0.00,,SKC,0.00,VWS V14.01,2013-01-29 10:15:00,
2013-01-29 05:20:00,49.2,46.4,30.00,South,190,10.0,24.0,90,0.00,,SKC,0.00,VWS V14.01,2013-01-29 10:20:00,
2013-01-29 05:26:00,49.2,46.4,30.00,SW,217,10.0,25.0,90,0.00,,SKC,0.00,VWS V14.01,2013-01-29 10:26:00,
2013-01-29 05:30:00,49.6,47.1,29.99,SSW,195,10.0,25.0,91,0.00,,SKC,0.00,VWS V14.01,2013-01-29 10:30:00,
2013-01-29 05:32:00,49.6,47.1,29.99,SW,228,5.0,17.0,91,0.00,,SKC,0.00,VWS V14.01,2013-01-29 10:32:00,
2013-01-29 05:38:00,49.8,47.0,29.99,SW,228,10.0,23.0,90,0.00,,SKC,0.00,VWS V14.01,2013-01-29 10:38:00,
2013-01-29 05:44:00,49.6,46.2,29.99,SSW,204,14.0,25.0,88,0.00,,SKC,0.00,VWS V14.01,2013-01-29 10:44:00,
2013-01-29 05:45:00,49.5,46.1,29.99,SSW,201,12.0,25.0,88,0.00,,SKC,0.00,VWS V14.01,2013-01-29 10:45:00,
2013-01-29 05:50:00,49.2,45.8,29.99,SW,236,7.0,21.0,88,0.00,,SKC,0.00,VWS V14.01,2013-01-29 10:50:00,
2013-01-29 05:56:00,48.9,45.5,29.99,WSW,248,9.0,22.0,88,0.00,,SKC,0.00,VWS V14.01,2013-01-29 10:56:00,
2013-01-29 06:00:00,48.8,45.4,30.00,SSW,212,4.0,22.0,88,0.00,,SKC,0.00,VWS V14.01,2013-01-29 11:00:00,
2013-01-29 06:02:00,48.6,45.5,30.00,SW,214,13.0,17.0,89,0.00,,SKC,0.00,VWS V14.01,2013-01-29 11:02:00,
2013-01-29 06:08:00,48.6,45.5,30.00,SSW,195,2.0,21.0,89,0.00,,SKC,0.00,VWS V14.01,2013-01-29 11:08:00,
2013-01-29 06:14:00,48.9,45.8,30.00,SSW,203,13.0,21.0,89,0.00,,SKC,0.00,VWS V14.01,2013-01-29 11:14:00,
2013-01-29 06:15:00,49.1,46.0,30.01,South,191,11.0,21.0,89,0.00,,SKC,0.00,VWS V14.01,2013-01-29 11:15:00,
2013-01-29 06:20:00,49.2,45.8,30.01,SSW,196,15.0,23.0,88,0.00,,SKC,0.00,VWS V14.01,2013-01-29 11:20:00,
2013-01-29 06:26:00,48.8,45.1,30.01,South,186,17.0,23.0,87,0.00,,SKC,0.00,VWS V14.01,2013-01-29 11:26:00,
2013-01-29 06:30:00,48.8,45.4,30.00,SSW,204,5.0,23.0,88,0.00,,SKC,0.00,VWS V14.01,2013-01-29 11:30:00,
2013-01-29 06:32:00,48.9,45.8,30.00,SSW,201,19.0,20.0,89,0.00,,SKC,0.00,VWS V14.01,2013-01-29 11:32:00,
2013-01-29 06:38:00,49.5,46.4,30.00,SW,217,10.0,23.0,89,0.00,,SKC,0.00,VWS V14.01,2013-01-29 11:38:00,
2013-01-29 06:44:00,49.6,46.2,30.00,SW,226,12.0,23.0,88,0.00,,SKC,0.00,VWS V14.01,2013-01-29 11:44:00,
2013-01-29 06:45:00,49.8,46.4,30.00,WSW,237,10.0,23.0,88,0.00,,SKC,0.00,VWS V14.01,2013-01-29 11:45:00,
2013-01-29 06:50:00,49.6,46.2,30.00,SSW,196,14.0,23.0,88,0.00,,SKC,0.00,VWS V14.01,2013-01-29 11:50:00,
2013-01-29 06:56:00,49.5,46.1,30.00,SSW,212,10.0,30.0,88,0.00,,SKC,0.00,VWS V14.01,2013-01-29 11:56:00,
2013-01-29 07:00:00,49.5,46.1,30.00,SSW,193,11.0,30.0,88,0.00,,SKC,0.00,VWS V14.01,2013-01-29 12:00:00,
2013-01-29 07:02:00,49.5,46.4,30.00,SSW,213,16.0,19.0,89,0.00,,SKC,0.00,VWS V14.01,2013-01-29 12:02:00,
2013-01-29 07:08:00,49.6,46.2,30.00,SSW,200,16.0,24.0,88,0.00,,SKC,0.00,VWS V14.01,2013-01-29 12:08:00,
2013-01-29 07:14:00,49.5,46.4,30.01,SW,229,12.0,25.0,89,0.00,,SKC,0.00,VWS V14.01,2013-01-29 12:14:00,
2013-01-29 07:15:00,49.4,46.3,30.01,SSW,195,14.0,25.0,89,0.00,,SKC,0.00,VWS V14.01,2013-01-29 12:15:00,
2013-01-29 07:21:00,49.5,46.4,30.01,SSW,198,14.0,17.0,89,0.00,,SKC,0.00,VWS V14.01,2013-01-29 12:21:00,
2013-01-29 07:27:00,49.6,46.5,30.01,SW,224,9.0,23.0,89,0.00,,SKC,0.00,VWS V14.01,2013-01-29 12:27:00,
2013-01-29 07:30:00,49.6,46.5,30.02,South,186,13.0,23.0,89,0.00,,SKC,0.00,VWS V14.01,2013-01-29 12:30:00,
2013-01-29 07:33:00,49.6,46.5,30.02,SSW,200,6.0,18.0,89,0.00,,SKC,0.00,VWS V14.01,2013-01-29 12:33:00,
2013-01-29 07:39:00,49.9,46.5,30.02,South,176,9.0,23.0,88,0.00,,SKC,0.00,VWS V14.01,2013-01-29 12:39:00,
2013-01-29 07:45:00,50.4,46.4,30.02,SSW,212,6.0,24.0,86,0.00,,SKC,0.00,VWS V14.01,2013-01-29 12:45:00,
2013-01-29 07:51:00,50.1,46.1,30.02,SSW,195,12.0,19.0,86,0.00,,SKC,0.00,VWS V14.01,2013-01-29 12:51:00,
2013-01-29 07:57:00,49.5,45.5,30.02,SSW,195,6.0,21.0,86,0.00,,SKC,0.00,VWS V14.01,2013-01-29 12:57:00,
2013-01-29 08:00:00,49.5,45.5,30.02,SSW,211,6.0,21.0,86,0.00,,SKC,0.00,VWS V14.01,2013-01-29 13:00:00,
2013-01-29 08:03:00,49.4,45.1,30.02,SSW,195,1.0,16.0,85,0.00,,SKC,0.00,VWS V14.01,2013-01-29 13:03:00,
2013-01-29 08:09:00,48.9,44.9,30.02,SSW,204,11.0,21.0,86,0.00,,SKC,0.00,VWS V14.01,2013-01-29 13:09:00,
2013-01-29 08:15:00,49.2,45.2,30.02,SSW,198,15.0,21.0,86,0.00,,SKC,0.00,VWS V14.01,2013-01-29 13:15:00,
2013-01-29 08:21:00,49.4,45.1,30.02,South,191,20.0,23.0,85,0.00,,SKC,0.00,VWS V14.01,2013-01-29 13:21:00,
2013-01-29 08:27:00,49.8,44.8,30.02,SSW,205,15.0,23.0,83,0.00,,SKC,0.00,VWS V14.01,2013-01-29 13:27:00,
2013-01-29 08:30:00,49.9,45.3,30.02,SSW,207,5.0,23.0,84,0.00,,SKC,0.00,VWS V14.01,2013-01-29 13:30:00,
2013-01-29 08:33:00,49.9,45.3,30.02,SSW,207,16.0,18.0,84,0.00,,SKC,0.00,VWS V14.01,2013-01-29 13:33:00,
2013-01-29 08:39:00,50.4,45.1,30.02,South,191,17.0,20.0,82,0.00,,SKC,0.00,VWS V14.01,2013-01-29 13:39:00,
2013-01-29 08:45:00,50.4,45.1,30.03,South,174,10.0,21.0,82,0.00,,SKC,0.00,VWS V14.01,2013-01-29 13:45:00,
2013-01-29 08:51:00,50.8,45.2,30.03,SSW,203,10.0,27.0,81,0.00,,SKC,0.00,VWS V14.01,2013-01-29 13:51:00,
2013-01-29 08:57:00,51.1,44.8,30.03,SSW,196,9.0,27.0,79,0.00,,SKC,0.00,VWS V14.01,2013-01-29 13:57:00,
2013-01-29 09:00:00,51.0,44.7,30.02,SSW,196,12.0,27.0,79,0.00,,SKC,0.00,VWS V14.01,2013-01-29 14:00:00,
2013-01-29 09:03:00,51.1,44.8,30.02,SW,220,13.0,20.0,79,0.00,,SKC,0.00,VWS V14.01,2013-01-29 14:03:00,
2013-01-29 09:09:00,51.3,44.3,30.02,SW,236,7.0,21.0,77,0.00,,SKC,0.00,VWS V14.01,2013-01-29 14:09:00,
2013-01-29 09:15:00,51.7,44.4,30.02,South,183,6.0,21.0,76,0.00,,SKC,0.00,VWS V14.01,2013-01-29 14:15:00,
2013-01-29 09:21:00,52.3,44.3,30.02,SSW,202,11.0,20.0,74,0.00,,SKC,0.00,VWS V14.01,2013-01-29 14:21:00,
2013-01-29 09:27:00,52.9,44.5,30.02,SSE,161,15.0,24.0,73,0.00,,SKC,0.00,VWS V14.01,2013-01-29 14:27:00,
2013-01-29 09:30:00,53.1,44.3,30.02,South,191,13.0,24.0,72,0.00,,SKC,0.00,VWS V14.01,2013-01-29 14:30:00,
2013-01-29 09:33:00,53.1,44.3,30.02,SSW,209,15.0,21.0,72,0.00,,SKC,0.00,VWS V14.01,2013-01-29 14:33:00,
2013-01-29 09:39:00,53.1,44.0,30.02,SSW,195,10.0,25.0,71,0.00,,SKC,0.00,VWS V14.01,2013-01-29 14:39:00,
2013-01-29 09:45:00,53.3,43.8,30.02,SSW,212,6.0,26.0,70,0.00,,SKC,0.00,VWS V14.01,2013-01-29 14:45:00,
2013-01-29 09:51:00,53.9,43.6,30.02,SSW,193,10.0,21.0,68,0.00,,SKC,0.00,VWS V14.01,2013-01-29 14:51:00,
2013-01-29 09:57:00,54.2,43.9,30.02,SSW,196,7.0,24.0,68,0.00,,SKC,0.00,VWS V14.01,2013-01-29 14:57:00,
2013-01-29 10:00:00,54.8,44.1,30.02,South,186,12.0,24.0,67,0.00,,SKC,0.00,VWS V14.01,2013-01-29 15:00:00,
2013-01-29 10:03:00,55.1,44.3,30.02,SSW,198,10.0,20.0,67,0.00,,SKC,0.00,VWS V14.01,2013-01-29 15:03:00,
2013-01-29 10:09:00,55.7,44.5,30.02,SSW,203,10.0,21.0,66,0.00,,SKC,0.00,VWS V14.01,2013-01-29 15:09:00,
2013-01-29 10:15:00,55.7,44.9,30.03,South,184,17.0,21.0,67,0.00,,SKC,0.00,VWS V14.01,2013-01-29 15:15:00,
2013-01-29 10:21:00,56.3,45.5,30.03,SSW,210,9.0,22.0,67,0.00,,SKC,0.00,VWS V14.01,2013-01-29 15:21:00,
2013-01-29 10:27:00,56.9,45.3,30.03,SSW,203,5.0,22.0,65,0.00,,SKC,0.00,VWS V14.01,2013-01-29 15:27:00,
2013-01-29 10:30:00,56.9,45.3,30.03,SSW,213,12.0,22.0,65,0.00,,SKC,0.00,VWS V14.01,2013-01-29 15:30:00,
2013-01-29 10:33:00,56.9,45.3,30.03,SSW,210,6.0,14.0,65,0.00,,SKC,0.00,VWS V14.01,2013-01-29 15:33:00,
2013-01-29 10:39:00,57.5,45.8,30.03,South,179,7.0,18.0,65,0.00,,SKC,0.00,VWS V14.01,2013-01-29 15:39:00,
2013-01-29 10:45:00,58.1,46.8,30.03,South,188,11.0,18.0,66,0.00,,SKC,0.00,VWS V14.01,2013-01-29 15:45:00,
2013-01-29 10:51:00,59.0,47.7,30.03,South,179,10.0,18.0,66,0.00,,SKC,0.00,VWS V14.01,2013-01-29 15:51:00,
2013-01-29 10:58:00,59.8,48.0,30.03,SW,220,9.0,18.0,65,0.00,,SKC,0.00,VWS V14.01,2013-01-29 15:58:00,
2013-01-29 11:00:00,59.9,48.1,30.01,SSW,208,5.0,18.0,65,0.00,,SKC,0.00,VWS V14.01,2013-01-29 16:00:00,
2013-01-29 11:04:00,60.1,48.3,30.01,SW,221,7.0,13.0,65,0.00,,SKC,0.00,VWS V14.01,2013-01-29 16:04:00,
2013-01-29 11:10:00,60.1,46.6,30.01,South,181,9.0,19.0,61,0.00,,SKC,0.00,VWS V14.01,2013-01-29 16:10:00,
2013-01-29 11:15:00,59.8,45.9,30.01,SSW,208,7.0,19.0,60,0.00,,SKC,0.00,VWS V14.01,2013-01-29 16:15:00,
2013-01-29 11:22:00,59.9,46.0,30.01,SSW,203,2.0,12.0,60,0.00,,SKC,0.00,VWS V14.01,2013-01-29 16:22:00,
2013-01-29 11:28:00,59.6,45.7,30.01,SSW,197,9.0,13.0,60,0.00,,SKC,0.00,VWS V14.01,2013-01-29 16:28:00,
2013-01-29 11:30:00,59.6,44.4,30.01,SW,229,5.0,13.0,57,0.00,,SKC,0.00,VWS V14.01,2013-01-29 16:30:00,
2013-01-29 11:34:00,59.8,44.5,30.01,SW,219,10.0,16.0,57,0.00,,SKC,0.00,VWS V14.01,2013-01-29 16:34:00,
2013-01-29 11:40:00,59.9,45.5,30.01,SW,226,3.0,16.0,59,0.00,,SKC,0.00,VWS V14.01,2013-01-29 16:40:00,
2013-01-29 11:45:00,60.2,46.7,30.00,SSW,204,5.0,16.0,61,0.00,,SKC,0.00,VWS V14.01,2013-01-29 16:45:00,
2013-01-29 11:52:00,60.1,46.6,30.00,SSW,203,5.0,19.0,61,0.00,,SKC,0.00,VWS V14.01,2013-01-29 16:52:00,
2013-01-29 11:58:00,60.2,46.7,30.00,SSW,195,0.0,19.0,61,0.00,,SKC,0.00,VWS V14.01,2013-01-29 16:58:00,
2013-01-29 12:00:00,60.2,46.7,30.00,SSW,200,6.0,19.0,61,0.00,,SKC,0.00,VWS V14.01,2013-01-29 17:00:00,
2013-01-29 12:04:00,60.1,46.2,30.00,SW,229,4.0,15.0,60,0.00,,SKC,0.00,VWS V14.01,2013-01-29 17:04:00,
2013-01-29 12:10:00,59.5,45.6,30.00,SW,215,0.0,15.0,60,0.00,,SKC,0.00,VWS V14.01,2013-01-29 17:10:00,
2013-01-29 12:15:00,59.0,45.6,30.00,SSW,206,9.0,15.0,61,0.00,,SKC,0.00,VWS V14.01,2013-01-29 17:15:00,
2013-01-29 12:22:00,58.3,44.9,30.00,SSW,210,10.0,17.0,61,0.00,,SKC,0.00,VWS V14.01,2013-01-29 17:22:00,
2013-01-29 12:28:00,58.9,44.2,30.00,SSW,203,5.0,17.0,58,0.00,,SKC,0.00,VWS V14.01,2013-01-29 17:28:00,
2013-01-29 12:30:00,59.0,44.3,29.99,WSW,248,2.0,23.0,58,0.00,,SKC,0.00,VWS V14.01,2013-01-29 17:30:00,
2013-01-29 12:34:00,59.2,44.5,29.99,SW,214,7.0,14.0,58,0.00,,SKC,0.00,VWS V14.01,2013-01-29 17:34:00,
2013-01-29 12:40:00,59.3,45.0,29.99,SSW,208,6.0,17.0,59,0.00,,SKC,0.00,VWS V14.01,2013-01-29 17:40:00,
2013-01-29 12:45:00,59.5,45.2,29.98,SSW,195,6.0,17.0,59,0.00,,SKC,0.00,VWS V14.01,2013-01-29 17:45:00,
2013-01-29 12:52:00,60.2,45.4,29.98,SW,226,5.0,14.0,58,0.00,,SKC,0.00,VWS V14.01,2013-01-29 17:52:00,
2013-01-29 12:58:00,60.5,45.7,29.98,SSW,212,4.0,17.0,58,0.00,,SKC,0.00,VWS V14.01,2013-01-29 17:58:00,
2013-01-29 13:00:00,60.9,46.0,29.97,SW,218,5.0,17.0,58,0.00,,SKC,0.00,VWS V14.01,2013-01-29 18:00:00,
2013-01-29 13:04:00,61.2,45.9,29.97,SW,217,5.0,17.0,57,0.00,,SKC,0.00,VWS V14.01,2013-01-29 18:04:00,
2013-01-29 13:10:00,61.8,45.5,29.97,SW,220,5.0,17.0,55,0.00,,SKC,0.00,VWS V14.01,2013-01-29 18:10:00,
2013-01-29 13:15:00,62.4,46.0,29.96,WSW,244,3.0,17.0,55,0.00,,SKC,0.00,VWS V14.01,2013-01-29 18:15:00,
2013-01-29 13:22:00,63.2,45.8,29.96,SSW,202,2.0,11.0,53,0.00,,SKC,0.00,VWS V14.01,2013-01-29 18:22:00,
2013-01-29 13:28:00,63.5,46.6,29.96,SSW,193,0.0,13.0,54,0.00,,SKC,0.00,VWS V14.01,2013-01-29 18:28:00,
2013-01-29 13:30:00,63.7,46.8,29.95,SSW,205,3.0,13.0,54,0.00,,SKC,0.00,VWS V14.01,2013-01-29 18:30:00,
2013-01-29 13:34:00,63.9,47.0,29.95,SSW,206,9.0,9.0,54,0.00,,SKC,0.00,VWS V14.01,2013-01-29 18:34:00,
2013-01-29 13:40:00,64.2,46.7,29.95,SSW,205,0.0,10.0,53,0.00,,SKC,0.00,VWS V14.01,2013-01-29 18:40:00,
2013-01-29 13:45:00,64.5,47.0,29.94,South,181,0.0,12.0,53,0.00,,SKC,0.00,VWS V14.01,2013-01-29 18:45:00,
2013-01-29 13:47:00,64.7,47.2,29.94,South,181,2.0,2.0,53,0.00,,SKC,0.00,VWS V14.01,2013-01-29 18:47:00,
2013-01-29 13:53:00,64.8,46.8,29.94,WSW,240,0.0,9.0,52,0.00,,SKC,0.00,VWS V14.01,2013-01-29 18:53:00,
2013-01-29 13:59:00,64.5,46.5,29.94,SSW,200,0.0,14.0,52,0.00,,SKC,0.00,VWS V14.01,2013-01-29 18:59:00,
2013-01-29 14:00:00,64.5,47.0,29.93,SW,227,0.0,14.0,53,0.00,,SKC,0.00,VWS V14.01,2013-01-29 19:00:00,
2013-01-29 14:05:00,64.0,46.5,29.93,SW,214,7.0,12.0,53,0.00,,SKC,0.00,VWS V14.01,2013-01-29 19:05:00,
2013-01-29 14:11:00,63.7,46.3,29.93,SW,227,3.0,12.0,53,0.00,,SKC,0.00,VWS V14.01,2013-01-29 19:11:00,
2013-01-29 14:15:00,63.7,46.3,29.93,SW,219,0.0,12.0,53,0.00,,SKC,0.00,VWS V14.01,2013-01-29 19:15:00,
2013-01-29 14:17:00,63.7,46.8,29.93,South,176,10.0,10.0,54,0.00,,SKC,0.00,VWS V14.01,2013-01-29 19:17:00,
2013-01-29 14:23:00,64.7,46.2,29.93,SSW,205,8.0,13.0,51,0.00,,SKC,0.00,VWS V14.01,2013-01-29 19:23:00,
2013-01-29 14:29:00,64.7,45.7,29.93,SW,220,4.0,13.0,50,0.00,,SKC,0.00,VWS V14.01,2013-01-29 19:29:00,
2013-01-29 14:30:00,64.8,46.3,29.92,WSW,244,5.0,13.0,51,0.00,,SKC,0.00,VWS V14.01,2013-01-29 19:30:00,
2013-01-29 14:35:00,64.5,46.0,29.92,SW,224,4.0,13.0,51,0.00,,SKC,0.00,VWS V14.01,2013-01-29 19:35:00,
2013-01-29 14:41:00,63.5,45.6,29.92,SW,225,0.0,13.0,52,0.00,,SKC,0.00,VWS V14.01,2013-01-29 19:41:00,
2013-01-29 14:45:00,62.9,45.5,29.93,SW,224,0.0,13.0,53,0.00,,SKC,0.00,VWS V14.01,2013-01-29 19:45:00,
2013-01-29 14:47:00,62.7,45.3,29.93,SW,229,10.0,13.0,53,0.00,,SKC,0.00,VWS V14.01,2013-01-29 19:47:00,
2013-01-29 14:53:00,62.3,45.0,29.93,South,188,2.0,13.0,53,0.00,,SKC,0.00,VWS V14.01,2013-01-29 19:53:00,
2013-01-29 14:59:00,62.1,45.3,29.93,SW,231,0.0,13.0,54,0.00,,SKC,0.00,VWS V14.01,2013-01-29 19:59:00,
2013-01-29 15:00:00,62.1,45.8,29.93,SW,214,0.0,13.0,55,0.00,,SKC,0.00,VWS V14.01,2013-01-29 20:00:00,
2013-01-29 15:01:00,62.1,45.8,29.93,SW,214,0.0,13.0,55,0.00,,SKC,0.00,VWS V14.01,2013-01-29 20:01:00,
2013-01-29 15:08:00,63.1,45.7,29.93,SW,219,9.0,11.0,53,0.00,,SKC,0.00,VWS V14.01,2013-01-29 20:08:00,
2013-01-29 15:14:00,63.4,45.5,29.93,SW,221,9.0,11.0,52,0.00,,SKC,0.00,VWS V14.01,2013-01-29 20:14:00,
2013-01-29 15:15:00,63.5,45.6,29.92,SW,221,0.0,11.0,52,0.00,,SKC,0.00,VWS V14.01,2013-01-29 20:15:00,
2013-01-29 15:20:00,63.9,45.4,29.92,SW,231,3.0,11.0,51,0.00,,SKC,0.00,VWS V14.01,2013-01-29 20:20:00,
2013-01-29 15:26:00,64.2,45.7,29.92,SW,220,0.0,11.0,51,0.00,,SKC,0.00,VWS V14.01,2013-01-29 20:26:00,
2013-01-29 15:30:00,64.5,46.0,29.92,SW,233,0.0,14.0,51,0.00,,SKC,0.00,VWS V14.01,2013-01-29 20:30:00,
2013-01-29 15:32:00,64.7,46.2,29.92,SSW,210,4.0,10.0,51,0.00,,SKC,0.00,VWS V14.01,2013-01-29 20:32:00,
2013-01-29 15:38:00,64.7,46.2,29.92,SW,226,0.0,10.0,51,0.00,,SKC,0.00,VWS V14.01,2013-01-29 20:38:00,
2013-01-29 15:44:00,64.3,45.3,29.92,SW,229,8.0,10.0,50,0.00,,SKC,0.00,VWS V14.01,2013-01-29 20:44:00,
2013-01-29 15:45:00,64.2,45.7,29.92,SSW,203,0.0,11.0,51,0.00,,SKC,0.00,VWS V14.01,2013-01-29 20:45:00,
2013-01-29 15:50:00,63.7,45.2,29.92,SW,216,0.0,7.0,51,0.00,,SKC,0.00,VWS V14.01,2013-01-29 20:50:00,
2013-01-29 15:56:00,63.4,45.0,29.92,SW,228,0.0,12.0,51,0.00,,SKC,0.00,VWS V14.01,2013-01-29 20:56:00,
2013-01-29 16:00:00,63.4,45.0,29.91,SW,225,5.0,12.0,51,0.00,,SKC,0.00,VWS V14.01,2013-01-29 21:00:00,
2013-01-29 16:02:00,63.4,45.0,29.91,SSW,211,0.0,6.0,51,0.00,,SKC,0.00,VWS V14.01,2013-01-29 21:02:00,
2013-01-29 16:08:00,63.2,44.8,29.91,SSW,208,0.0,10.0,51,0.00,,SKC,0.00,VWS V14.01,2013-01-29 21:08:00,
2013-01-29 16:14:00,63.1,45.2,29.90,SSW,213,2.0,12.0,52,0.00,,SKC,0.00,VWS V14.01,2013-01-29 21:14:00,
2013-01-29 16:15:00,63.1,45.2,29.90,SSW,205,2.0,12.0,52,0.00,,SKC,0.00,VWS V14.01,2013-01-29 21:15:00,
2013-01-29 16:20:00,63.2,44.8,29.90,WSW,242,0.0,6.0,51,0.00,,SKC,0.00,VWS V14.01,2013-01-29 21:20:00,
2013-01-29 16:26:00,63.4,45.0,29.90,SSW,210,9.0,9.0,51,0.00,,SKC,0.00,VWS V14.01,2013-01-29 21:26:00,
2013-01-29 16:30:00,63.2,45.3,29.90,SSW,195,4.0,9.0,52,0.00,,SKC,0.00,VWS V14.01,2013-01-29 21:30:00,
2013-01-29 16:33:00,63.1,44.7,29.90,SW,231,0.0,5.0,51,0.00,,SKC,0.00,VWS V14.01,2013-01-29 21:33:00,
2013-01-29 16:39:00,62.7,44.8,29.90,SW,227,0.0,6.0,52,0.00,,SKC,0.00,VWS V14.01,2013-01-29 21:39:00,
2013-01-29 16:45:00,62.4,45.1,29.90,SW,229,4.0,6.0,53,0.00,,SKC,0.00,VWS V14.01,2013-01-29 21:45:00,
2013-01-29 16:51:00,62.1,44.8,29.90,SSW,203,0.0,8.0,53,0.00,,SKC,0.00,VWS V14.01,2013-01-29 21:51:00,
2013-01-29 16:57:00,61.5,44.7,29.90,WSW,243,4.0,8.0,54,0.00,,SKC,0.00,VWS V14.01,2013-01-29 21:57:00,
2013-01-29 17:00:00,61.3,44.5,29.89,WSW,241,5.0,8.0,54,0.00,,SKC,0.00,VWS V14.01,2013-01-29 22:00:00,
2013-01-29 17:03:00,61.2,44.4,29.89,WSW,240,0.0,4.0,54,0.00,,SKC,0.00,VWS V14.01,2013-01-29 22:03:00,
2013-01-29 17:09:00,60.5,44.3,29.89,SW,229,2.0,5.0,55,0.00,,SKC,0.00,VWS V14.01,2013-01-29 22:09:00,
2013-01-29 17:15:00,59.9,44.2,29.90,SW,222,1.0,10.0,56,0.00,,SKC,0.00,VWS V14.01,2013-01-29 22:15:00,
2013-01-29 17:21:00,59.3,44.1,29.90,WSW,240,1.0,9.0,57,0.00,,SKC,0.00,VWS V14.01,2013-01-29 22:21:00,
2013-01-29 17:27:00,58.6,43.9,29.90,SSW,209,0.0,9.0,58,0.00,,SKC,0.00,VWS V14.01,2013-01-29 22:27:00,
2013-01-29 17:30:00,58.1,43.4,29.91,SW,218,0.0,9.0,58,0.00,,SKC,0.00,VWS V14.01,2013-01-29 22:30:00,
2013-01-29 17:33:00,57.8,43.6,29.91,SW,221,3.0,6.0,59,0.00,,SKC,0.00,VWS V14.01,2013-01-29 22:33:00,
2013-01-29 17:39:00,57.2,43.0,29.91,SW,224,0.0,10.0,59,0.00,,SKC,0.00,VWS V14.01,2013-01-29 22:39:00,
2013-01-29 17:45:00,56.7,43.0,29.90,SW,229,5.0,14.0,60,0.00,,SKC,0.00,VWS V14.01,2013-01-29 22:45:00,
2013-01-29 17:51:00,56.2,43.0,29.90,SW,217,4.0,14.0,61,0.00,,SKC,0.00,VWS V14.01,2013-01-29 22:51:00,
2013-01-29 17:57:00,55.6,42.4,29.90,SSW,212,1.0,14.0,61,0.00,,SKC,0.00,VWS V14.01,2013-01-29 22:57:00,
2013-01-29 18:00:00,55.3,42.5,29.91,SW,225,5.0,18.0,62,0.00,,SKC,0.00,VWS V14.01,2013-01-29 23:00:00,
2013-01-29 18:15:00,55.4,42.2,29.90,SSW,202,9.0,22.0,61,0.00,,SKC,0.00,VWS V14.01,2013-01-29 23:15:00,
2013-01-29 18:30:00,55.0,45.4,29.89,SSW,202,10.0,23.0,70,0.00,,SKC,0.00,VWS V14.01,2013-01-29 23:30:00,
2013-01-29 18:45:00,54.7,46.2,29.89,SSW,202,10.0,22.0,73,0.00,,SKC,0.00,VWS V14.01,2013-01-29 23:45:00,
2013-01-29 19:00:00,54.5,46.4,29.89,SSW,202,8.0,24.0,74,0.00,,SKC,0.00,VWS V14.01,2013-01-30 00:00:00,
2013-01-29 19:15:00,54.4,47.7,29.89,SSW,202,9.0,25.0,78,0.00,,SKC,0.00,VWS V14.01,2013-01-30 00:15:00,
2013-01-29 19:30:00,54.4,48.4,29.89,SSW,202,10.0,21.0,80,0.00,,SKC,0.00,VWS V14.01,2013-01-30 00:30:00,
2013-01-29 19:45:00,54.4,49.0,29.89,SSW,202,9.0,21.0,82,0.00,,SKC,0.00,VWS V14.01,2013-01-30 00:45:00,
2013-01-29 20:00:00,54.2,49.2,29.89,SSW,202,9.0,25.0,83,0.00,,SKC,0.00,VWS V14.01,2013-01-30 01:00:00,
2013-01-29 20:15:00,54.2,49.8,29.89,SSW,202,8.0,23.0,85,0.00,,SKC,0.00,VWS V14.01,2013-01-30 01:15:00,
2013-01-29 20:30:00,53.9,49.8,29.90,SSW,202,7.0,19.0,86,0.00,,SKC,0.00,VWS V14.01,2013-01-30 01:30:00,
2013-01-29 20:45:00,53.6,49.8,29.90,SSW,202,7.0,19.0,87,0.00,,SKC,0.00,VWS V14.01,2013-01-30 01:45:00,
2013-01-29 21:00:00,53.9,50.1,29.90,SSW,202,7.0,22.0,87,0.00,,SKC,0.00,VWS V14.01,2013-01-30 02:00:00,
2013-01-29 21:15:00,54.1,50.3,29.89,SW,225,7.0,22.0,87,0.00,,SKC,0.00,VWS V14.01,2013-01-30 02:15:00,
2013-01-29 21:30:00,53.9,50.7,29.88,SSW,202,8.0,23.0,89,0.00,,SKC,0.00,VWS V14.01,2013-01-30 02:30:00,
2013-01-29 21:45:00,54.5,50.7,29.87,SSW,202,11.0,25.0,87,0.00,,SKC,0.00,VWS V14.01,2013-01-30 02:45:00,
2013-01-29 22:00:00,54.7,50.9,29.85,SSW,202,11.0,24.0,87,0.00,,SKC,0.00,VWS V14.01,2013-01-30 03:00:00,
2013-01-29 22:15:00,55.1,51.3,29.83,SSW,202,14.0,30.0,87,0.00,,SKC,0.00,VWS V14.01,2013-01-30 03:15:00,
2013-01-29 22:30:00,55.0,51.5,29.83,SSW,202,13.0,28.0,88,0.00,,SKC,0.00,VWS V14.01,2013-01-30 03:30:00,
2013-01-29 22:45:00,55.1,51.6,29.83,SSW,202,12.0,30.0,88,0.00,,SKC,0.00,VWS V14.01,2013-01-30 03:45:00,
2013-01-29 23:00:00,55.7,51.6,29.81,SSW,202,14.0,37.0,86,0.00,,SKC,0.00,VWS V14.01,2013-01-30 04:00:00,
2013-01-29 23:15:00,55.1,51.9,29.82,SSW,202,13.0,28.0,89,0.00,,SKC,0.00,VWS V14.01,2013-01-30 04:15:00,
2013-01-29 23:30:00,54.8,52.2,29.81,SSW,202,11.0,26.0,91,0.00,,SKC,0.00,VWS V14.01,2013-01-30 04:30:00,
2013-01-29 23:45:00,55.1,52.5,29.80,SSW,202,13.0,35.0,91,0.00,,SKC,0.00,VWS V14.01,2013-01-30 04:45:00,